sensor_id;sensor_type;location;lat;lon;timestamp;temperature;humidity
63371;DHT22;49504;48.336;14.472;2022-12-05T00:00:30;25.60;43.80
63371;DHT22;49504;48.336;14.472;2022-12-05T00:05:31;25.60;43.80
63371;DHT22;49504;48.336;14.472;2022-12-05T00:10:35;25.60;43.80
63371;DHT22;49504;48.336;14.472;2022-12-05T00:15:39;25.60;43.80
63371;DHT22;49504;48.336;14.472;2022-12-05T00:20:44;25.60;43.50
63371;DHT22;49504;48.336;14.472;2022-12-05T00:25:45;25.60;43.50
63371;DHT22;49504;48.336;14.472;2022-12-05T00:30:47;25.60;43.60
63371;DHT22;49504;48.336;14.472;2022-12-05T00:35:48;25.60;43.60
63371;DHT22;49504;48.336;14.472;2022-12-05T00:40:49;25.60;43.50
63371;DHT22;49504;48.336;14.472;2022-12-05T00:45:51;25.60;43.50
63371;DHT22;49504;48.336;14.472;2022-12-05T00:50:59;25.60;43.50
63371;DHT22;49504;48.336;14.472;2022-12-05T00:56:02;25.60;43.50
63371;DHT22;49504;48.336;14.472;2022-12-05T01:01:10;25.60;43.40
63371;DHT22;49504;48.336;14.472;2022-12-05T01:06:12;25.60;43.40
63371;DHT22;49504;48.336;14.472;2022-12-05T01:11:17;25.60;43.30
63371;DHT22;49504;48.336;14.472;2022-12-05T01:16:22;25.60;43.30
63371;DHT22;49504;48.336;14.472;2022-12-05T01:21:24;25.60;43.20
63371;DHT22;49504;48.336;14.472;2022-12-05T01:26:26;25.60;43.20
63371;DHT22;49504;48.336;14.472;2022-12-05T01:31:30;25.60;43.20
63371;DHT22;49504;48.336;14.472;2022-12-05T01:36:32;25.60;43.20
63371;DHT22;49504;48.336;14.472;2022-12-05T01:41:35;25.60;43.20
63371;DHT22;49504;48.336;14.472;2022-12-05T01:46:43;25.60;43.20
63371;DHT22;49504;48.336;14.472;2022-12-05T01:51:47;25.60;43.20
63371;DHT22;49504;48.336;14.472;2022-12-05T01:56:51;25.60;43.20
63371;DHT22;49504;48.336;14.472;2022-12-05T02:01:55;25.60;43.20
63371;DHT22;49504;48.336;14.472;2022-12-05T02:06:56;25.60;43.20
63371;DHT22;49504;48.336;14.472;2022-12-05T02:11:59;25.60;43.10
63371;DHT22;49504;48.336;14.472;2022-12-05T02:17:07;25.60;43.10
63371;DHT22;49504;48.336;14.472;2022-12-05T02:22:42;25.60;43.10
63371;DHT22;49504;48.336;14.472;2022-12-05T02:33:48;25.50;43.00
63371;DHT22;49504;48.336;14.472;2022-12-05T02:38:57;25.60;43.10
63371;DHT22;49504;48.336;14.472;2022-12-05T02:44:00;25.60;43.10
63371;DHT22;49504;48.336;14.472;2022-12-05T02:49:07;25.50;43.10
63371;DHT22;49504;48.336;14.472;2022-12-05T02:54:13;25.60;43.10
63371;DHT22;49504;48.336;14.472;2022-12-05T02:59:17;25.60;43.20
63371;DHT22;49504;48.336;14.472;2022-12-05T03:04:22;25.60;43.10
63371;DHT22;49504;48.336;14.472;2022-12-05T03:09:27;25.60;43.20
63371;DHT22;49504;48.336;14.472;2022-12-05T03:14:33;25.60;43.20
63371;DHT22;49504;48.336;14.472;2022-12-05T03:19:45;25.50;43.10
63371;DHT22;49504;48.336;14.472;2022-12-05T03:24:48;25.50;43.10
63371;DHT22;49504;48.336;14.472;2022-12-05T03:29:53;25.60;43.20
63371;DHT22;49504;48.336;14.472;2022-12-05T03:35:04;25.50;43.10
63371;DHT22;49504;48.336;14.472;2022-12-05T03:40:13;25.60;43.20
63371;DHT22;49504;48.336;14.472;2022-12-05T03:45:28;25.60;43.20
63371;DHT22;49504;48.336;14.472;2022-12-05T03:50:36;25.60;43.20
63371;DHT22;49504;48.336;14.472;2022-12-05T03:55:41;25.60;43.20
63371;DHT22;49504;48.336;14.472;2022-12-05T04:25:37;24.40;43.10
63371;DHT22;49504;48.336;14.472;2022-12-05T04:30:47;24.80;43.90
63371;DHT22;49504;48.336;14.472;2022-12-05T04:35:54;25.10;43.50
63371;DHT22;49504;48.336;14.472;2022-12-05T04:41:02;25.20;43.20
63371;DHT22;49504;48.336;14.472;2022-12-05T04:46:08;25.40;43.00
63371;DHT22;49504;48.336;14.472;2022-12-05T04:51:15;25.40;43.00
63371;DHT22;49504;48.336;14.472;2022-12-05T04:56:22;25.40;43.00
63371;DHT22;49504;48.336;14.472;2022-12-05T05:01:31;25.40;43.10
63371;DHT22;49504;48.336;14.472;2022-12-05T05:19:39;25.50;42.60
63371;DHT22;49504;48.336;14.472;2022-12-05T05:24:41;25.50;43.20
63371;DHT22;49504;48.336;14.472;2022-12-05T05:29:42;25.60;42.40
63371;DHT22;49504;48.336;14.472;2022-12-05T05:34:44;25.60;42.10
63371;DHT22;49504;48.336;14.472;2022-12-05T05:39:45;25.70;42.20
63371;DHT22;49504;48.336;14.472;2022-12-05T05:44:47;25.60;42.10
63371;DHT22;49504;48.336;14.472;2022-12-05T05:49:49;25.60;42.30
63371;DHT22;49504;48.336;14.472;2022-12-05T05:54:50;25.60;42.20
63371;DHT22;49504;48.336;14.472;2022-12-05T05:59:51;25.60;42.40
63371;DHT22;49504;48.336;14.472;2022-12-05T06:04:54;25.60;41.90
63371;DHT22;49504;48.336;14.472;2022-12-05T06:09:55;25.50;42.10
63371;DHT22;49504;48.336;14.472;2022-12-05T06:14:56;25.50;42.10
63371;DHT22;49504;48.336;14.472;2022-12-05T06:19:58;25.50;42.20
63371;DHT22;49504;48.336;14.472;2022-12-05T06:24:59;25.50;42.30
63371;DHT22;49504;48.336;14.472;2022-12-05T06:30:00;25.50;42.30
63371;DHT22;49504;48.336;14.472;2022-12-05T06:35:03;25.50;42.40
63371;DHT22;49504;48.336;14.472;2022-12-05T06:40:05;25.50;42.40
63371;DHT22;49504;48.336;14.472;2022-12-05T06:45:07;25.50;42.50
63371;DHT22;49504;48.336;14.472;2022-12-05T06:50:11;25.50;42.60
63371;DHT22;49504;48.336;14.472;2022-12-05T06:58:57;25.40;42.00
63371;DHT22;49504;48.336;14.472;2022-12-05T07:03:59;25.50;42.60
63371;DHT22;49504;48.336;14.472;2022-12-05T07:09:02;25.40;42.60
63371;DHT22;49504;48.336;14.472;2022-12-05T07:14:05;25.50;42.70
63371;DHT22;49504;48.336;14.472;2022-12-05T07:19:07;25.40;42.60
63371;DHT22;49504;48.336;14.472;2022-12-05T07:24:08;25.40;42.70
63371;DHT22;49504;48.336;14.472;2022-12-05T07:29:10;25.50;42.70
63371;DHT22;49504;48.336;14.472;2022-12-05T07:34:11;25.50;42.70
63371;DHT22;49504;48.336;14.472;2022-12-05T07:39:12;25.40;42.70
63371;DHT22;49504;48.336;14.472;2022-12-05T07:44:15;25.40;42.60
63371;DHT22;49504;48.336;14.472;2022-12-05T07:49:16;25.40;42.70
63371;DHT22;49504;48.336;14.472;2022-12-05T07:54:17;25.40;42.70
63371;DHT22;49504;48.336;14.472;2022-12-05T07:59:19;25.40;42.30
63371;DHT22;49504;48.336;14.472;2022-12-05T08:04:20;25.40;42.20
63371;DHT22;49504;48.336;14.472;2022-12-05T08:09:21;25.40;42.20
63371;DHT22;49504;48.336;14.472;2022-12-05T08:14:23;25.40;42.30
63371;DHT22;49504;48.336;14.472;2022-12-05T08:19:24;25.40;42.30
63371;DHT22;49504;48.336;14.472;2022-12-05T08:24:25;25.40;42.30
63371;DHT22;49504;48.336;14.472;2022-12-05T08:29:27;25.40;42.30
63371;DHT22;49504;48.336;14.472;2022-12-05T08:34:28;25.40;42.40
63371;DHT22;49504;48.336;14.472;2022-12-05T08:39:29;25.40;42.40
63371;DHT22;49504;48.336;14.472;2022-12-05T08:44:32;25.40;42.50
63371;DHT22;49504;48.336;14.472;2022-12-05T08:49:33;25.40;42.30
63371;DHT22;49504;48.336;14.472;2022-12-05T08:54:34;25.40;42.50
63371;DHT22;49504;48.336;14.472;2022-12-05T08:59:36;25.40;42.50
63371;DHT22;49504;48.336;14.472;2022-12-05T09:04:37;25.40;42.50
63371;DHT22;49504;48.336;14.472;2022-12-05T09:09:38;25.40;42.50
63371;DHT22;49504;48.336;14.472;2022-12-05T09:16:34;25.30;41.90
63371;DHT22;49504;48.336;14.472;2022-12-05T09:21:36;25.40;42.50
63371;DHT22;49504;48.336;14.472;2022-12-05T09:26:37;25.40;42.50
63371;DHT22;49504;48.336;14.472;2022-12-05T09:31:40;25.30;42.50
63371;DHT22;49504;48.336;14.472;2022-12-05T09:36:41;25.30;42.50
63371;DHT22;49504;48.336;14.472;2022-12-05T09:42:16;25.40;42.60
63371;DHT22;49504;48.336;14.472;2022-12-05T09:47:54;25.30;42.60
63371;DHT22;49504;48.336;14.472;2022-12-05T09:53:09;25.30;42.60
63371;DHT22;49504;48.336;14.472;2022-12-05T09:58:26;25.30;42.70
63371;DHT22;49504;48.336;14.472;2022-12-05T10:03:40;25.30;42.70
63371;DHT22;49504;48.336;14.472;2022-12-05T10:08:57;25.30;42.70
63371;DHT22;49504;48.336;14.472;2022-12-05T10:14:13;25.30;42.70
63371;DHT22;49504;48.336;14.472;2022-12-05T10:19:24;25.30;42.70
63371;DHT22;49504;48.336;14.472;2022-12-05T10:24:32;25.30;42.80
63371;DHT22;49504;48.336;14.472;2022-12-05T10:29:40;25.30;42.80
63371;DHT22;49504;48.336;14.472;2022-12-05T10:34:46;25.30;42.80
63371;DHT22;49504;48.336;14.472;2022-12-05T10:39:48;25.30;42.90
63371;DHT22;49504;48.336;14.472;2022-12-05T10:44:55;25.30;42.90
63371;DHT22;49504;48.336;14.472;2022-12-05T10:50:03;25.30;43.50
63371;DHT22;49504;48.336;14.472;2022-12-05T10:55:12;25.30;42.90
63371;DHT22;49504;48.336;14.472;2022-12-05T11:00:15;25.40;42.90
63371;DHT22;49504;48.336;14.472;2022-12-05T11:05:28;25.30;42.90
63371;DHT22;49504;48.336;14.472;2022-12-05T11:10:35;25.30;42.80
63371;DHT22;49504;48.336;14.472;2022-12-05T11:15:43;25.30;42.90
63371;DHT22;49504;48.336;14.472;2022-12-05T11:20:46;25.40;42.90
63371;DHT22;49504;48.336;14.472;2022-12-05T11:25:47;25.40;43.00
63371;DHT22;49504;48.336;14.472;2022-12-05T11:30:55;25.30;42.90
63371;DHT22;49504;48.336;14.472;2022-12-05T11:36:05;25.30;42.90
63371;DHT22;49504;48.336;14.472;2022-12-05T11:41:23;25.30;42.90
63371;DHT22;49504;48.336;14.472;2022-12-05T11:46:38;25.30;43.00
63371;DHT22;49504;48.336;14.472;2022-12-05T11:51:53;25.30;43.00
63371;DHT22;49504;48.336;14.472;2022-12-05T11:57:01;25.30;43.10
63371;DHT22;49504;48.336;14.472;2022-12-05T12:02:16;25.30;44.00
63371;DHT22;49504;48.336;14.472;2022-12-05T12:07:40;25.30;43.30
63371;DHT22;49504;48.336;14.472;2022-12-05T12:13:03;25.40;43.40
63371;DHT22;49504;48.336;14.472;2022-12-05T12:18:23;25.40;43.90
63371;DHT22;49504;48.336;14.472;2022-12-05T12:27:52;25.30;43.00
63371;DHT22;49504;48.336;14.472;2022-12-05T12:33:03;25.40;43.90
63371;DHT22;49504;48.336;14.472;2022-12-05T12:38:31;25.40;43.90
63371;DHT22;49504;48.336;14.472;2022-12-05T12:44:01;25.30;43.80
63371;DHT22;49504;48.336;14.472;2022-12-05T12:49:33;25.30;43.80
63371;DHT22;49504;48.336;14.472;2022-12-05T12:54:58;25.40;43.80
63371;DHT22;49504;48.336;14.472;2022-12-05T13:00:15;25.40;43.80
63371;DHT22;49504;48.336;14.472;2022-12-05T13:05:28;25.40;44.00
63371;DHT22;49504;48.336;14.472;2022-12-05T13:10:33;25.40;44.00
63371;DHT22;49504;48.336;14.472;2022-12-05T13:15:40;25.40;44.10
63371;DHT22;49504;48.336;14.472;2022-12-05T13:20:47;25.40;44.00
63371;DHT22;49504;48.336;14.472;2022-12-05T13:25:51;25.40;43.90
63371;DHT22;49504;48.336;14.472;2022-12-05T13:30:56;25.30;43.80
63371;DHT22;49504;48.336;14.472;2022-12-05T13:36:06;25.40;43.90
63371;DHT22;49504;48.336;14.472;2022-12-05T13:41:09;25.40;43.90
63371;DHT22;49504;48.336;14.472;2022-12-05T13:46:18;25.40;43.90
63371;DHT22;49504;48.336;14.472;2022-12-05T13:51:27;25.40;43.90
63371;DHT22;49504;48.336;14.472;2022-12-05T13:56:47;25.40;43.80
63371;DHT22;49504;48.336;14.472;2022-12-05T14:01:51;25.40;43.80
63371;DHT22;49504;48.336;14.472;2022-12-05T14:06:56;25.40;43.70
63371;DHT22;49504;48.336;14.472;2022-12-05T14:12:28;25.40;43.50
63371;DHT22;49504;48.336;14.472;2022-12-05T14:17:41;25.40;43.30
63371;DHT22;49504;48.336;14.472;2022-12-05T14:23:00;25.30;43.30
63371;DHT22;49504;48.336;14.472;2022-12-05T14:28:17;25.40;43.40
63371;DHT22;49504;48.336;14.472;2022-12-05T14:33:25;25.40;43.40
63371;DHT22;49504;48.336;14.472;2022-12-05T14:38:28;25.30;43.40
63371;DHT22;49504;48.336;14.472;2022-12-05T14:43:32;25.30;43.40
63371;DHT22;49504;48.336;14.472;2022-12-05T14:48:36;25.30;43.40
63371;DHT22;49504;48.336;14.472;2022-12-05T14:53:39;25.40;43.50
63371;DHT22;49504;48.336;14.472;2022-12-05T14:58:44;25.30;43.40
63371;DHT22;49504;48.336;14.472;2022-12-05T15:04:07;25.30;43.40
63371;DHT22;49504;48.336;14.472;2022-12-05T15:09:47;25.30;43.40
63371;DHT22;49504;48.336;14.472;2022-12-05T15:15:05;25.30;43.40
63371;DHT22;49504;48.336;14.472;2022-12-05T15:20:15;25.30;43.40
63371;DHT22;49504;48.336;14.472;2022-12-05T15:25:25;25.30;43.40
63371;DHT22;49504;48.336;14.472;2022-12-05T15:30:29;25.40;43.40
63371;DHT22;49504;48.336;14.472;2022-12-05T15:35:33;25.30;43.30
63371;DHT22;49504;48.336;14.472;2022-12-05T15:40:35;25.30;43.30
63371;DHT22;49504;48.336;14.472;2022-12-05T15:45:36;25.30;43.30
63371;DHT22;49504;48.336;14.472;2022-12-05T15:50:40;25.40;43.40
63371;DHT22;49504;48.336;14.472;2022-12-05T15:55:44;25.30;43.20
63371;DHT22;49504;48.336;14.472;2022-12-05T16:00:49;25.30;43.00
63371;DHT22;49504;48.336;14.472;2022-12-05T16:05:56;25.30;43.80
63371;DHT22;49504;48.336;14.472;2022-12-05T16:24:45;25.30;42.60
63371;DHT22;49504;48.336;14.472;2022-12-05T16:30:04;25.20;43.50
63371;DHT22;49504;48.336;14.472;2022-12-05T16:35:25;25.40;43.10
63371;DHT22;49504;48.336;14.472;2022-12-05T16:40:30;25.40;43.00
63371;DHT22;49504;48.336;14.472;2022-12-05T16:45:38;25.50;42.80
63371;DHT22;49504;48.336;14.472;2022-12-05T16:54:11;25.50;42.60
63371;DHT22;49504;48.336;14.472;2022-12-05T16:59:19;25.50;43.00
63371;DHT22;49504;48.336;14.472;2022-12-05T17:04:22;25.40;43.10
63371;DHT22;49504;48.336;14.472;2022-12-05T17:09:24;25.40;43.10
63371;DHT22;49504;48.336;14.472;2022-12-05T17:14:25;25.40;43.00
63371;DHT22;49504;48.336;14.472;2022-12-05T17:19:26;25.40;43.10
63371;DHT22;49504;48.336;14.472;2022-12-05T17:24:29;25.40;43.10
63371;DHT22;49504;48.336;14.472;2022-12-05T17:29:30;25.40;43.10
63371;DHT22;49504;48.336;14.472;2022-12-05T17:34:31;25.40;43.10
63371;DHT22;49504;48.336;14.472;2022-12-05T17:39:33;25.40;43.10
63371;DHT22;49504;48.336;14.472;2022-12-05T17:44:34;25.40;43.10
63371;DHT22;49504;48.336;14.472;2022-12-05T17:49:35;25.40;43.10
63371;DHT22;49504;48.336;14.472;2022-12-05T17:54:37;25.30;43.10
63371;DHT22;49504;48.336;14.472;2022-12-05T17:59:38;25.40;43.10
63371;DHT22;49504;48.336;14.472;2022-12-05T18:04:40;25.40;43.20
63371;DHT22;49504;48.336;14.472;2022-12-05T18:09:42;25.40;43.00
63371;DHT22;49504;48.336;14.472;2022-12-05T18:14:43;25.40;43.00
63371;DHT22;49504;48.336;14.472;2022-12-05T18:19:45;25.30;43.00
63371;DHT22;49504;48.336;14.472;2022-12-05T18:24:47;25.40;43.20
63371;DHT22;49504;48.336;14.472;2022-12-05T18:29:49;25.40;43.20
63371;DHT22;49504;48.336;14.472;2022-12-05T18:34:50;25.40;43.10
63371;DHT22;49504;48.336;14.472;2022-12-05T18:39:53;25.40;43.30
63371;DHT22;49504;48.336;14.472;2022-12-05T18:44:54;25.40;43.30
63371;DHT22;49504;48.336;14.472;2022-12-05T18:49:55;25.40;43.40
63371;DHT22;49504;48.336;14.472;2022-12-05T18:54:57;25.40;43.40
63371;DHT22;49504;48.336;14.472;2022-12-05T19:00:02;25.40;43.40
63371;DHT22;49504;48.336;14.472;2022-12-05T19:05:25;25.40;42.90
63371;DHT22;49504;48.336;14.472;2022-12-05T19:10:26;25.40;43.40
63371;DHT22;49504;48.336;14.472;2022-12-05T19:15:27;25.40;43.50
63371;DHT22;49504;48.336;14.472;2022-12-05T19:20:29;25.40;43.60
63371;DHT22;49504;48.336;14.472;2022-12-05T19:25:30;25.40;43.60
63371;DHT22;49504;48.336;14.472;2022-12-05T19:30:31;25.40;43.50
63371;DHT22;49504;48.336;14.472;2022-12-05T19:35:35;25.40;43.60
63371;DHT22;49504;48.336;14.472;2022-12-05T19:40:36;25.40;43.60
63371;DHT22;49504;48.336;14.472;2022-12-05T19:45:37;25.40;43.60
63371;DHT22;49504;48.336;14.472;2022-12-05T19:50:40;25.30;44.20
63371;DHT22;49504;48.336;14.472;2022-12-05T19:55:41;25.40;43.60
63371;DHT22;49504;48.336;14.472;2022-12-05T20:02:27;25.30;43.00
63371;DHT22;49504;48.336;14.472;2022-12-05T20:07:28;25.40;43.70
63371;DHT22;49504;48.336;14.472;2022-12-05T20:12:29;25.40;43.70
63371;DHT22;49504;48.336;14.472;2022-12-05T20:17:32;25.40;43.60
63371;DHT22;49504;48.336;14.472;2022-12-05T20:22:33;25.40;43.70
63371;DHT22;49504;48.336;14.472;2022-12-05T20:27:34;25.40;43.60
63371;DHT22;49504;48.336;14.472;2022-12-05T20:32:36;25.40;43.60
63371;DHT22;49504;48.336;14.472;2022-12-05T20:37:37;25.40;43.60
63371;DHT22;49504;48.336;14.472;2022-12-05T20:42:38;25.40;43.60
63371;DHT22;49504;48.336;14.472;2022-12-05T20:47:40;25.40;43.60
63371;DHT22;49504;48.336;14.472;2022-12-05T20:52:41;25.40;43.60
63371;DHT22;49504;48.336;14.472;2022-12-05T20:57:42;25.40;43.60
63371;DHT22;49504;48.336;14.472;2022-12-05T21:02:45;25.40;43.60
63371;DHT22;49504;48.336;14.472;2022-12-05T21:07:45;25.40;43.50
63371;DHT22;49504;48.336;14.472;2022-12-05T21:12:46;25.40;43.50
63371;DHT22;49504;48.336;14.472;2022-12-05T21:17:49;25.40;43.50
63371;DHT22;49504;48.336;14.472;2022-12-05T21:22:50;25.40;43.50
63371;DHT22;49504;48.336;14.472;2022-12-05T21:27:51;25.40;43.50
63371;DHT22;49504;48.336;14.472;2022-12-05T21:32:53;25.40;43.50
63371;DHT22;49504;48.336;14.472;2022-12-05T21:37:55;25.40;43.50
63371;DHT22;49504;48.336;14.472;2022-12-05T21:42:56;25.40;43.50
63371;DHT22;49504;48.336;14.472;2022-12-05T21:47:58;25.40;43.60
63371;DHT22;49504;48.336;14.472;2022-12-05T21:52:59;25.40;43.60
63371;DHT22;49504;48.336;14.472;2022-12-05T21:58:00;25.40;43.60
63371;DHT22;49504;48.336;14.472;2022-12-05T22:03:02;25.40;43.60
63371;DHT22;49504;48.336;14.472;2022-12-05T22:08:04;25.40;43.60
63371;DHT22;49504;48.336;14.472;2022-12-05T22:13:05;25.40;43.60
63371;DHT22;49504;48.336;14.472;2022-12-05T22:18:08;25.40;43.60
63371;DHT22;49504;48.336;14.472;2022-12-05T22:23:09;25.40;43.60
63371;DHT22;49504;48.336;14.472;2022-12-05T22:28:10;25.40;43.60
63371;DHT22;49504;48.336;14.472;2022-12-05T22:33:13;25.40;43.70
63371;DHT22;49504;48.336;14.472;2022-12-05T22:38:14;25.40;43.60
63371;DHT22;49504;48.336;14.472;2022-12-05T22:43:15;25.40;43.90
63371;DHT22;49504;48.336;14.472;2022-12-05T22:48:18;25.40;44.00
63371;DHT22;49504;48.336;14.472;2022-12-05T22:53:20;25.40;44.20
63371;DHT22;49504;48.336;14.472;2022-12-05T22:58:22;25.40;44.30
63371;DHT22;49504;48.336;14.472;2022-12-05T23:03:24;25.50;44.40
63371;DHT22;49504;48.336;14.472;2022-12-05T23:08:25;25.50;44.40
63371;DHT22;49504;48.336;14.472;2022-12-05T23:13:26;25.50;44.40
63371;DHT22;49504;48.336;14.472;2022-12-05T23:18:29;25.40;44.30
63371;DHT22;49504;48.336;14.472;2022-12-05T23:23:30;25.50;44.30
63371;DHT22;49504;48.336;14.472;2022-12-05T23:28:32;25.50;44.20
63371;DHT22;49504;48.336;14.472;2022-12-05T23:33:34;25.50;44.10
63371;DHT22;49504;48.336;14.472;2022-12-05T23:38:36;25.50;44.10
63371;DHT22;49504;48.336;14.472;2022-12-05T23:43:39;25.50;44.00
63371;DHT22;49504;48.336;14.472;2022-12-05T23:48:41;25.50;43.90
63371;DHT22;49504;48.336;14.472;2022-12-05T23:53:44;25.50;43.80
63371;DHT22;49504;48.336;14.472;2022-12-05T23:58:45;25.50;43.70
